Friend, Nebraska
Current Conditions -  °F | °C
As of 5:35 AM on Friday 24 Oct 2014 (Local Time) from KJYR Reporting Station
Haze Haze  
Wind Chill: 57°   Ceiling: Unl
Heat Index: 57°   Visibility: 4mi
Dew Point: 55°   Wind: 10mph
Humidity: 94%   Direction: 210°SSW
Pressure: 29.95"   Gusts: NA
Location:  40.65°N, 97.29°W
Report Text: KJYR 241035Z AUTO 21009KT 4SM BR CLR 14/13 A2995 RMK AO2
Loading
Personal Weather Stations






























Interactive Weather Map
Tropical Storm Tracking
New forecast layout! Learn more

10-Day Weather Forecast

Advertisements
Track Severe Weather on mobile